Terminal Aerodrome Forecast
Issued by NWS Detroit/Pontiac, MI

Home | Current Version | Previous Version | Text Only | Print | Product List | Glossary On
Versions: 1 2 3 4 5 6 7 8 9 10 11 12 13 14 15 16 17 18 19
000
FTUS43 KDTX 292124 AAA
TAFFNT
TAF AMD
KFNT 292124Z 2921/3018 18013KT P6SM SCT045 BKN250
     FM300100 20010KT 5SM SHRA OVC035
     FM300400 22010KT P6SM SCT035 OVC080
     FM300800 24012KT P6SM OVC030
     FM301600 26012KT P6SM OVC030=

USA.gov is the U.S. government's official web portal to all federal, state and local government web resources and services.